首页
METAR-TAF:

METAR-TAF

机场 :

Resolute, 努那武特, 加拿大

纬度: 74-43N, 经度: 094-59W, 海拔: 67米

当前天气观测

该预报发布于20分钟前的22:00 UTC
风速25节,风向
温度 -33°C
湿度 67%
气压 1026 hPa
能見度: 4.8公里
少量云层高于2500英尺
高吹雪

METAR: CYRB 152200Z 36025KT 3SM BLSN FEW025 M33/M37 A3030 RMK SC1 SC TR VIS VRB 1 3/4-6 SLP275

时间: 16:20 (22:20 UTC)

预报

该预报发布于4小时和42分钟前的17:38 UTC
预报有效从15日的 18点(UTC)到 16日的 18点(UTC)
风速20节,风向西北,有时为30节阵风
能見度: 9.7公里
少量云层高于3000英尺
冰针, 高吹雪
短暂存在
从 15日的 18点(UTC)到 16日的 02点(UTC)
能見度: 1.6公里
高吹雪
从 16日的 0200点(UTC)
风速15节,风向
能見度: 10公里
少量云层高于3000英尺

TAF: CYRB 151738Z 1518/1618 32020G30KT 6SM IC BLSN FEW030 TEMPO 1518/1602 1SM BLSN FM160200 35015KT P6SM FEW030 RMK NXT FCST BY 160000Z

超过4000个机场的气象观测和天气预报(METAR&TAF报告)。

可查询的气象台以黄色和红色小点在地图上表示。

将鼠标移到小点上方,可查看气象台名称。

然后点击查看天气观测和预报。

如需切换地图:点击带黑十字的绿色按钮放大地图;点击带横线的绿色按钮缩小地图;或者点击绿色箭头查看邻近地区的地图。


METAR-TAF: